sensor_id;sensor_type;location;lat;lon;timestamp;P1;durP1;ratioP1;P2;durP2;ratioP2
14139;SDS011;7150;53.514;9.988;2023-04-24T00:01:11;7.17;;;5.27;;
14139;SDS011;7150;53.514;9.988;2023-04-24T00:03:37;6.37;;;5.33;;
14139;SDS011;7150;53.514;9.988;2023-04-24T00:06:03;6.33;;;5.27;;
14139;SDS011;7150;53.514;9.988;2023-04-24T00:08:31;6.70;;;5.17;;
14139;SDS011;7150;53.514;9.988;2023-04-24T00:10:57;5.57;;;4.70;;
14139;SDS011;7150;53.514;9.988;2023-04-24T00:13:22;8.87;;;5.20;;
14139;SDS011;7150;53.514;9.988;2023-04-24T00:15:48;8.53;;;4.93;;
14139;SDS011;7150;53.514;9.988;2023-04-24T00:18:14;6.90;;;5.13;;
14139;SDS011;7150;53.514;9.988;2023-04-24T00:20:40;8.03;;;4.83;;
14139;SDS011;7150;53.514;9.988;2023-04-24T00:23:05;6.07;;;4.60;;
14139;SDS011;7150;53.514;9.988;2023-04-24T00:25:31;6.23;;;4.90;;
14139;SDS011;7150;53.514;9.988;2023-04-24T00:27:56;5.23;;;4.50;;
14139;SDS011;7150;53.514;9.988;2023-04-24T00:30:22;5.57;;;4.40;;
14139;SDS011;7150;53.514;9.988;2023-04-24T00:32:47;6.63;;;4.33;;
14139;SDS011;7150;53.514;9.988;2023-04-24T00:35:13;5.03;;;4.37;;
14139;SDS011;7150;53.514;9.988;2023-04-24T00:37:39;5.43;;;4.50;;
14139;SDS011;7150;53.514;9.988;2023-04-24T00:40:05;5.87;;;4.30;;
14139;SDS011;7150;53.514;9.988;2023-04-24T00:42:31;4.90;;;3.93;;
14139;SDS011;7150;53.514;9.988;2023-04-24T00:44:57;5.10;;;4.17;;
14139;SDS011;7150;53.514;9.988;2023-04-24T00:47:24;7.80;;;4.40;;
14139;SDS011;7150;53.514;9.988;2023-04-24T00:49:50;5.30;;;4.30;;
14139;SDS011;7150;53.514;9.988;2023-04-24T00:52:16;6.03;;;4.70;;
14139;SDS011;7150;53.514;9.988;2023-04-24T00:54:43;5.50;;;4.40;;
14139;SDS011;7150;53.514;9.988;2023-04-24T00:57:10;6.63;;;3.87;;
14139;SDS011;7150;53.514;9.988;2023-04-24T00:59:35;5.63;;;3.97;;
14139;SDS011;7150;53.514;9.988;2023-04-24T01:02:01;5.00;;;4.03;;
14139;SDS011;7150;53.514;9.988;2023-04-24T01:04:27;4.60;;;4.10;;
14139;SDS011;7150;53.514;9.988;2023-04-24T01:06:53;6.17;;;4.77;;
14139;SDS011;7150;53.514;9.988;2023-04-24T01:09:21;5.23;;;4.30;;
14139;SDS011;7150;53.514;9.988;2023-04-24T01:11:48;5.50;;;4.17;;
14139;SDS011;7150;53.514;9.988;2023-04-24T01:14:14;5.23;;;4.20;;
14139;SDS011;7150;53.514;9.988;2023-04-24T01:16:39;4.80;;;4.10;;
14139;SDS011;7150;53.514;9.988;2023-04-24T01:19:06;5.33;;;4.20;;
14139;SDS011;7150;53.514;9.988;2023-04-24T01:21:33;5.27;;;3.83;;
14139;SDS011;7150;53.514;9.988;2023-04-24T01:24:01;4.47;;;3.80;;
14139;SDS011;7150;53.514;9.988;2023-04-24T01:26:27;6.70;;;3.97;;
14139;SDS011;7150;53.514;9.988;2023-04-24T01:28:52;4.73;;;3.80;;
14139;SDS011;7150;53.514;9.988;2023-04-24T01:31:18;6.47;;;3.83;;
14139;SDS011;7150;53.514;9.988;2023-04-24T01:33:44;4.10;;;3.50;;
14139;SDS011;7150;53.514;9.988;2023-04-24T01:36:11;4.60;;;3.60;;
14139;SDS011;7150;53.514;9.988;2023-04-24T01:38:37;5.80;;;3.67;;
14139;SDS011;7150;53.514;9.988;2023-04-24T01:41:02;4.13;;;3.57;;
14139;SDS011;7150;53.514;9.988;2023-04-24T01:43:28;4.33;;;3.60;;
14139;SDS011;7150;53.514;9.988;2023-04-24T01:45:55;5.47;;;3.70;;
14139;SDS011;7150;53.514;9.988;2023-04-24T01:48:20;4.50;;;3.43;;
14139;SDS011;7150;53.514;9.988;2023-04-24T01:50:47;5.33;;;4.03;;
14139;SDS011;7150;53.514;9.988;2023-04-24T01:53:12;3.77;;;3.03;;
14139;SDS011;7150;53.514;9.988;2023-04-24T01:55:38;3.70;;;2.93;;
14139;SDS011;7150;53.514;9.988;2023-04-24T01:58:03;4.40;;;3.10;;
14139;SDS011;7150;53.514;9.988;2023-04-24T02:00:29;3.40;;;3.00;;
14139;SDS011;7150;53.514;9.988;2023-04-24T02:02:55;4.23;;;2.57;;
14139;SDS011;7150;53.514;9.988;2023-04-24T02:05:20;4.03;;;3.00;;
14139;SDS011;7150;53.514;9.988;2023-04-24T02:07:46;3.07;;;2.53;;
14139;SDS011;7150;53.514;9.988;2023-04-24T02:10:11;4.20;;;2.63;;
14139;SDS011;7150;53.514;9.988;2023-04-24T02:12:37;3.00;;;2.50;;
14139;SDS011;7150;53.514;9.988;2023-04-24T02:15:03;4.37;;;2.87;;
14139;SDS011;7150;53.514;9.988;2023-04-24T02:17:29;2.90;;;2.60;;
14139;SDS011;7150;53.514;9.988;2023-04-24T02:19:55;3.27;;;2.53;;
14139;SDS011;7150;53.514;9.988;2023-04-24T02:22:21;2.90;;;2.60;;
14139;SDS011;7150;53.514;9.988;2023-04-24T02:24:46;2.77;;;2.40;;
14139;SDS011;7150;53.514;9.988;2023-04-24T02:27:12;2.50;;;2.17;;
14139;SDS011;7150;53.514;9.988;2023-04-24T02:29:37;2.60;;;2.23;;
14139;SDS011;7150;53.514;9.988;2023-04-24T02:32:03;3.07;;;2.30;;
14139;SDS011;7150;53.514;9.988;2023-04-24T02:34:28;4.70;;;2.37;;
14139;SDS011;7150;53.514;9.988;2023-04-24T02:36:54;2.73;;;2.00;;
14139;SDS011;7150;53.514;9.988;2023-04-24T02:39:19;4.63;;;2.47;;
14139;SDS011;7150;53.514;9.988;2023-04-24T02:41:45;3.43;;;2.47;;
14139;SDS011;7150;53.514;9.988;2023-04-24T02:44:11;2.80;;;2.10;;
14139;SDS011;7150;53.514;9.988;2023-04-24T02:46:36;2.63;;;1.80;;
14139;SDS011;7150;53.514;9.988;2023-04-24T02:49:02;2.80;;;2.13;;
14139;SDS011;7150;53.514;9.988;2023-04-24T02:51:27;2.93;;;2.00;;
14139;SDS011;7150;53.514;9.988;2023-04-24T02:53:53;4.43;;;3.47;;
14139;SDS011;7150;53.514;9.988;2023-04-24T02:56:19;3.53;;;2.43;;
14139;SDS011;7150;53.514;9.988;2023-04-24T02:58:45;2.80;;;2.40;;
14139;SDS011;7150;53.514;9.988;2023-04-24T03:01:10;3.43;;;2.03;;
14139;SDS011;7150;53.514;9.988;2023-04-24T03:03:36;5.20;;;2.00;;
14139;SDS011;7150;53.514;9.988;2023-04-24T03:06:02;3.37;;;1.70;;
14139;SDS011;7150;53.514;9.988;2023-04-24T03:08:30;2.47;;;1.93;;
14139;SDS011;7150;53.514;9.988;2023-04-24T03:10:56;2.47;;;1.93;;
14139;SDS011;7150;53.514;9.988;2023-04-24T03:13:22;2.13;;;1.93;;
14139;SDS011;7150;53.514;9.988;2023-04-24T03:15:47;3.07;;;1.50;;
14139;SDS011;7150;53.514;9.988;2023-04-24T03:18:13;1.70;;;1.60;;
14139;SDS011;7150;53.514;9.988;2023-04-24T03:20:38;2.67;;;1.73;;
14139;SDS011;7150;53.514;9.988;2023-04-24T03:23:04;1.90;;;1.70;;
14139;SDS011;7150;53.514;9.988;2023-04-24T03:25:29;1.50;;;1.40;;
14139;SDS011;7150;53.514;9.988;2023-04-24T03:27:55;1.97;;;1.60;;
14139;SDS011;7150;53.514;9.988;2023-04-24T03:30:20;1.97;;;1.70;;
14139;SDS011;7150;53.514;9.988;2023-04-24T03:32:46;1.73;;;1.60;;
14139;SDS011;7150;53.514;9.988;2023-04-24T03:35:11;2.30;;;1.60;;
14139;SDS011;7150;53.514;9.988;2023-04-24T03:37:37;2.60;;;1.60;;
14139;SDS011;7150;53.514;9.988;2023-04-24T03:40:02;1.50;;;1.40;;
14139;SDS011;7150;53.514;9.988;2023-04-24T03:42:28;1.83;;;1.50;;
14139;SDS011;7150;53.514;9.988;2023-04-24T03:44:53;1.73;;;1.30;;
14139;SDS011;7150;53.514;9.988;2023-04-24T03:47:19;1.90;;;1.63;;
14139;SDS011;7150;53.514;9.988;2023-04-24T03:49:45;2.23;;;1.60;;
14139;SDS011;7150;53.514;9.988;2023-04-24T03:52:10;2.90;;;1.60;;
14139;SDS011;7150;53.514;9.988;2023-04-24T03:54:35;1.63;;;1.40;;
14139;SDS011;7150;53.514;9.988;2023-04-24T03:57:01;1.57;;;1.40;;
14139;SDS011;7150;53.514;9.988;2023-04-24T03:59:27;1.07;;;1.00;;
14139;SDS011;7150;53.514;9.988;2023-04-24T04:01:52;1.53;;;1.40;;
14139;SDS011;7150;53.514;9.988;2023-04-24T04:04:17;1.70;;;1.50;;
14139;SDS011;7150;53.514;9.988;2023-04-24T04:06:43;1.47;;;1.37;;
14139;SDS011;7150;53.514;9.988;2023-04-24T04:09:11;3.43;;;1.77;;
14139;SDS011;7150;53.514;9.988;2023-04-24T04:11:37;1.60;;;1.50;;
14139;SDS011;7150;53.514;9.988;2023-04-24T04:14:02;2.43;;;1.47;;
14139;SDS011;7150;53.514;9.988;2023-04-24T04:16:28;1.33;;;1.20;;
14139;SDS011;7150;53.514;9.988;2023-04-24T04:18:53;2.37;;;1.60;;
14139;SDS011;7150;53.514;9.988;2023-04-24T04:21:20;1.73;;;1.30;;
14139;SDS011;7150;53.514;9.988;2023-04-24T04:23:45;1.40;;;1.30;;
14139;SDS011;7150;53.514;9.988;2023-04-24T04:26:11;1.47;;;1.37;;
14139;SDS011;7150;53.514;9.988;2023-04-24T04:28:37;1.20;;;1.10;;
14139;SDS011;7150;53.514;9.988;2023-04-24T04:31:04;1.43;;;1.33;;
14139;SDS011;7150;53.514;9.988;2023-04-24T04:33:29;1.67;;;1.50;;
14139;SDS011;7150;53.514;9.988;2023-04-24T04:35:55;2.03;;;1.30;;
14139;SDS011;7150;53.514;9.988;2023-04-24T04:38:22;2.30;;;1.60;;
14139;SDS011;7150;53.514;9.988;2023-04-24T04:40:47;1.50;;;1.40;;
14139;SDS011;7150;53.514;9.988;2023-04-24T04:43:13;2.43;;;1.67;;
14139;SDS011;7150;53.514;9.988;2023-04-24T04:45:39;2.10;;;1.30;;
14139;SDS011;7150;53.514;9.988;2023-04-24T04:48:06;1.40;;;1.30;;
14139;SDS011;7150;53.514;9.988;2023-04-24T04:50:33;1.37;;;1.27;;
14139;SDS011;7150;53.514;9.988;2023-04-24T04:52:59;2.90;;;1.17;;
14139;SDS011;7150;53.514;9.988;2023-04-24T04:55:25;2.17;;;1.30;;
14139;SDS011;7150;53.514;9.988;2023-04-24T04:57:51;1.47;;;1.37;;
14139;SDS011;7150;53.514;9.988;2023-04-24T05:00:16;1.67;;;1.27;;
14139;SDS011;7150;53.514;9.988;2023-04-24T05:02:42;1.70;;;1.40;;
14139;SDS011;7150;53.514;9.988;2023-04-24T05:05:08;1.30;;;1.20;;
14139;SDS011;7150;53.514;9.988;2023-04-24T05:07:34;1.70;;;1.30;;
14139;SDS011;7150;53.514;9.988;2023-04-24T05:09:59;2.23;;;1.30;;
14139;SDS011;7150;53.514;9.988;2023-04-24T05:12:25;2.63;;;1.30;;
14139;SDS011;7150;53.514;9.988;2023-04-24T05:14:50;1.37;;;1.20;;
14139;SDS011;7150;53.514;9.988;2023-04-24T05:17:16;1.60;;;1.33;;
14139;SDS011;7150;53.514;9.988;2023-04-24T05:19:42;1.50;;;1.30;;
14139;SDS011;7150;53.514;9.988;2023-04-24T05:22:07;1.77;;;1.10;;
14139;SDS011;7150;53.514;9.988;2023-04-24T05:24:34;1.60;;;1.20;;
14139;SDS011;7150;53.514;9.988;2023-04-24T05:27:00;2.00;;;0.90;;
14139;SDS011;7150;53.514;9.988;2023-04-24T05:29:27;1.73;;;1.10;;
14139;SDS011;7150;53.514;9.988;2023-04-24T05:31:52;2.67;;;1.07;;
14139;SDS011;7150;53.514;9.988;2023-04-24T05:34:18;1.80;;;1.27;;
14139;SDS011;7150;53.514;9.988;2023-04-24T05:36:43;2.00;;;1.37;;
14139;SDS011;7150;53.514;9.988;2023-04-24T05:39:09;2.53;;;1.20;;
14139;SDS011;7150;53.514;9.988;2023-04-24T05:41:35;1.40;;;1.07;;
14139;SDS011;7150;53.514;9.988;2023-04-24T05:44:00;1.00;;;0.90;;
14139;SDS011;7150;53.514;9.988;2023-04-24T05:46:26;2.03;;;1.10;;
14139;SDS011;7150;53.514;9.988;2023-04-24T05:48:51;2.00;;;1.20;;
14139;SDS011;7150;53.514;9.988;2023-04-24T05:51:17;2.60;;;1.20;;
14139;SDS011;7150;53.514;9.988;2023-04-24T05:53:42;1.30;;;1.20;;
14139;SDS011;7150;53.514;9.988;2023-04-24T05:56:08;1.53;;;1.10;;
14139;SDS011;7150;53.514;9.988;2023-04-24T05:58:33;1.40;;;1.10;;
14139;SDS011;7150;53.514;9.988;2023-04-24T06:00:59;1.77;;;1.30;;
14139;SDS011;7150;53.514;9.988;2023-04-24T06:03:26;1.83;;;1.03;;
14139;SDS011;7150;53.514;9.988;2023-04-24T06:05:52;2.07;;;1.20;;
14139;SDS011;7150;53.514;9.988;2023-04-24T06:08:18;1.33;;;1.23;;
14139;SDS011;7150;53.514;9.988;2023-04-24T06:10:43;1.73;;;1.10;;
14139;SDS011;7150;53.514;9.988;2023-04-24T06:13:09;1.30;;;1.20;;
14139;SDS011;7150;53.514;9.988;2023-04-24T06:15:34;2.03;;;0.90;;
14139;SDS011;7150;53.514;9.988;2023-04-24T06:18:00;1.83;;;1.30;;
14139;SDS011;7150;53.514;9.988;2023-04-24T06:20:25;1.30;;;1.20;;
14139;SDS011;7150;53.514;9.988;2023-04-24T06:22:51;1.73;;;1.10;;
14139;SDS011;7150;53.514;9.988;2023-04-24T06:25:17;1.70;;;1.20;;
14139;SDS011;7150;53.514;9.988;2023-04-24T06:27:43;1.63;;;1.13;;
14139;SDS011;7150;53.514;9.988;2023-04-24T06:30:09;1.33;;;1.13;;
14139;SDS011;7150;53.514;9.988;2023-04-24T06:32:35;2.60;;;1.10;;
14139;SDS011;7150;53.514;9.988;2023-04-24T06:35:01;1.30;;;1.20;;
14139;SDS011;7150;53.514;9.988;2023-04-24T06:37:26;1.83;;;1.50;;
14139;SDS011;7150;53.514;9.988;2023-04-24T06:39:52;2.20;;;1.23;;
14139;SDS011;7150;53.514;9.988;2023-04-24T06:42:17;3.03;;;1.30;;
14139;SDS011;7150;53.514;9.988;2023-04-24T06:44:45;2.77;;;1.40;;
14139;SDS011;7150;53.514;9.988;2023-04-24T06:47:11;1.70;;;1.50;;
14139;SDS011;7150;53.514;9.988;2023-04-24T06:49:38;2.60;;;1.50;;
14139;SDS011;7150;53.514;9.988;2023-04-24T06:52:04;1.50;;;1.40;;
14139;SDS011;7150;53.514;9.988;2023-04-24T06:54:30;1.90;;;1.30;;
14139;SDS011;7150;53.514;9.988;2023-04-24T06:56:57;2.73;;;1.43;;
14139;SDS011;7150;53.514;9.988;2023-04-24T06:59:23;1.80;;;1.40;;
14139;SDS011;7150;53.514;9.988;2023-04-24T07:01:49;2.17;;;1.70;;
14139;SDS011;7150;53.514;9.988;2023-04-24T07:04:16;2.10;;;1.50;;
14139;SDS011;7150;53.514;9.988;2023-04-24T07:06:41;4.03;;;1.70;;
14139;SDS011;7150;53.514;9.988;2023-04-24T07:09:07;1.90;;;1.63;;
14139;SDS011;7150;53.514;9.988;2023-04-24T07:11:34;1.30;;;1.20;;
14139;SDS011;7150;53.514;9.988;2023-04-24T07:14:01;2.40;;;1.90;;
14139;SDS011;7150;53.514;9.988;2023-04-24T07:16:27;2.83;;;2.27;;
14139;SDS011;7150;53.514;9.988;2023-04-24T07:18:53;2.37;;;1.90;;
14139;SDS011;7150;53.514;9.988;2023-04-24T07:21:18;2.90;;;1.47;;
14139;SDS011;7150;53.514;9.988;2023-04-24T07:23:44;4.03;;;1.80;;
14139;SDS011;7150;53.514;9.988;2023-04-24T07:26:09;2.37;;;1.90;;
14139;SDS011;7150;53.514;9.988;2023-04-24T07:28:35;2.67;;;2.03;;
14139;SDS011;7150;53.514;9.988;2023-04-24T07:31:00;2.20;;;2.00;;
14139;SDS011;7150;53.514;9.988;2023-04-24T07:33:26;3.20;;;2.00;;
14139;SDS011;7150;53.514;9.988;2023-04-24T07:35:52;3.17;;;2.20;;
14139;SDS011;7150;53.514;9.988;2023-04-24T07:38:17;3.10;;;2.30;;
14139;SDS011;7150;53.514;9.988;2023-04-24T07:40:46;2.83;;;2.20;;
14139;SDS011;7150;53.514;9.988;2023-04-24T07:43:12;3.83;;;1.93;;
14139;SDS011;7150;53.514;9.988;2023-04-24T07:45:38;3.73;;;2.30;;
14139;SDS011;7150;53.514;9.988;2023-04-24T07:48:04;2.20;;;2.00;;
14139;SDS011;7150;53.514;9.988;2023-04-24T07:50:30;2.10;;;1.87;;
14139;SDS011;7150;53.514;9.988;2023-04-24T07:52:55;4.57;;;2.13;;
14139;SDS011;7150;53.514;9.988;2023-04-24T07:55:21;2.43;;;2.23;;
14139;SDS011;7150;53.514;9.988;2023-04-24T07:57:46;2.87;;;2.47;;
14139;SDS011;7150;53.514;9.988;2023-04-24T08:00:12;3.30;;;2.53;;
14139;SDS011;7150;53.514;9.988;2023-04-24T08:02:38;3.00;;;2.70;;
14139;SDS011;7150;53.514;9.988;2023-04-24T08:05:04;4.87;;;3.50;;
14139;SDS011;7150;53.514;9.988;2023-04-24T08:07:29;4.00;;;2.47;;
14139;SDS011;7150;53.514;9.988;2023-04-24T08:09:55;3.60;;;3.10;;
14139;SDS011;7150;53.514;9.988;2023-04-24T08:12:20;5.73;;;3.07;;
14139;SDS011;7150;53.514;9.988;2023-04-24T08:14:46;4.77;;;3.20;;
14139;SDS011;7150;53.514;9.988;2023-04-24T08:17:11;4.30;;;3.20;;
14139;SDS011;7150;53.514;9.988;2023-04-24T08:19:37;4.17;;;3.30;;
14139;SDS011;7150;53.514;9.988;2023-04-24T08:22:02;7.03;;;3.27;;
14139;SDS011;7150;53.514;9.988;2023-04-24T08:24:29;6.33;;;3.13;;
14139;SDS011;7150;53.514;9.988;2023-04-24T08:26:54;6.00;;;3.40;;
14139;SDS011;7150;53.514;9.988;2023-04-24T08:29:21;3.60;;;2.73;;
14139;SDS011;7150;53.514;9.988;2023-04-24T08:31:47;5.03;;;3.37;;
14139;SDS011;7150;53.514;9.988;2023-04-24T08:34:12;4.23;;;3.27;;
14139;SDS011;7150;53.514;9.988;2023-04-24T08:36:38;3.43;;;2.77;;
14139;SDS011;7150;53.514;9.988;2023-04-24T08:39:05;5.10;;;3.33;;
14139;SDS011;7150;53.514;9.988;2023-04-24T08:41:31;4.03;;;3.13;;
14139;SDS011;7150;53.514;9.988;2023-04-24T08:43:59;4.23;;;3.10;;
14139;SDS011;7150;53.514;9.988;2023-04-24T08:46:26;5.40;;;3.60;;
14139;SDS011;7150;53.514;9.988;2023-04-24T08:48:52;5.53;;;3.10;;
14139;SDS011;7150;53.514;9.988;2023-04-24T08:51:18;3.63;;;3.23;;
14139;SDS011;7150;53.514;9.988;2023-04-24T08:53:45;3.70;;;2.73;;
14139;SDS011;7150;53.514;9.988;2023-04-24T08:56:11;4.43;;;3.50;;
14139;SDS011;7150;53.514;9.988;2023-04-24T08:58:38;4.20;;;3.03;;
14139;SDS011;7150;53.514;9.988;2023-04-24T09:01:04;4.63;;;3.17;;
14139;SDS011;7150;53.514;9.988;2023-04-24T09:03:30;4.23;;;3.03;;
14139;SDS011;7150;53.514;9.988;2023-04-24T09:05:57;3.20;;;2.90;;
14139;SDS011;7150;53.514;9.988;2023-04-24T09:08:25;3.70;;;2.87;;
14139;SDS011;7150;53.514;9.988;2023-04-24T09:10:52;3.90;;;3.50;;
14139;SDS011;7150;53.514;9.988;2023-04-24T09:13:18;4.63;;;3.10;;
14139;SDS011;7150;53.514;9.988;2023-04-24T09:15:45;3.53;;;3.23;;
14139;SDS011;7150;53.514;9.988;2023-04-24T09:18:10;3.67;;;2.77;;
14139;SDS011;7150;53.514;9.988;2023-04-24T09:20:56;3.00;;;2.70;;
14139;SDS011;7150;53.514;9.988;2023-04-24T09:23:26;2.33;;;2.13;;
14139;SDS011;7150;53.514;9.988;2023-04-24T09:25:56;4.47;;;2.80;;
14139;SDS011;7150;53.514;9.988;2023-04-24T09:28:29;3.17;;;2.50;;
14139;SDS011;7150;53.514;9.988;2023-04-24T09:33:38;3.63;;;3.03;;
14139;SDS011;7150;53.514;9.988;2023-04-24T09:36:04;4.00;;;3.13;;
14139;SDS011;7150;53.514;9.988;2023-04-24T09:38:34;3.63;;;3.13;;
14139;SDS011;7150;53.514;9.988;2023-04-24T09:41:02;4.80;;;4.00;;
14139;SDS011;7150;53.514;9.988;2023-04-24T09:43:32;4.80;;;3.87;;
14139;SDS011;7150;53.514;9.988;2023-04-24T09:45:59;4.03;;;3.40;;
14139;SDS011;7150;53.514;9.988;2023-04-24T09:48:31;4.37;;;3.57;;
14139;SDS011;7150;53.514;9.988;2023-04-24T09:51:01;4.43;;;3.70;;
14139;SDS011;7150;53.514;9.988;2023-04-24T09:53:28;4.80;;;3.20;;
14139;SDS011;7150;53.514;9.988;2023-04-24T09:55:54;4.67;;;3.37;;
14139;SDS011;7150;53.514;9.988;2023-04-24T09:58:27;5.00;;;3.40;;
14139;SDS011;7150;53.514;9.988;2023-04-24T10:00:54;3.87;;;3.47;;
14139;SDS011;7150;53.514;9.988;2023-04-24T10:03:23;5.03;;;3.77;;
14139;SDS011;7150;53.514;9.988;2023-04-24T10:05:51;3.57;;;3.00;;
14139;SDS011;7150;53.514;9.988;2023-04-24T10:08:17;4.47;;;3.70;;
14139;SDS011;7150;53.514;9.988;2023-04-24T10:10:45;4.10;;;3.70;;
14139;SDS011;7150;53.514;9.988;2023-04-24T10:13:12;6.60;;;4.47;;
14139;SDS011;7150;53.514;9.988;2023-04-24T10:15:40;4.60;;;4.10;;
14139;SDS011;7150;53.514;9.988;2023-04-24T10:18:07;6.43;;;3.20;;
14139;SDS011;7150;53.514;9.988;2023-04-24T10:20:34;4.23;;;3.47;;
14139;SDS011;7150;53.514;9.988;2023-04-24T10:23:01;5.73;;;4.43;;
14139;SDS011;7150;53.514;9.988;2023-04-24T10:25:28;5.10;;;4.07;;
14139;SDS011;7150;53.514;9.988;2023-04-24T10:27:55;8.30;;;4.47;;
14139;SDS011;7150;53.514;9.988;2023-04-24T10:30:23;5.73;;;4.43;;
14139;SDS011;7150;53.514;9.988;2023-04-24T10:32:48;5.53;;;4.90;;
14139;SDS011;7150;53.514;9.988;2023-04-24T10:35:15;5.50;;;4.60;;
14139;SDS011;7150;53.514;9.988;2023-04-24T10:37:49;8.53;;;5.33;;
14139;SDS011;7150;53.514;9.988;2023-04-24T10:40:19;8.77;;;6.27;;
14139;SDS011;7150;53.514;9.988;2023-04-24T10:42:52;8.60;;;6.20;;
14139;SDS011;7150;53.514;9.988;2023-04-24T10:45:20;6.67;;;4.87;;
14139;SDS011;7150;53.514;9.988;2023-04-24T10:47:50;7.47;;;5.07;;
14139;SDS011;7150;53.514;9.988;2023-04-24T10:50:42;6.50;;;5.30;;
14139;SDS011;7150;53.514;9.988;2023-04-24T10:53:19;6.30;;;5.27;;
14139;SDS011;7150;53.514;9.988;2023-04-24T10:55:47;6.97;;;5.40;;
14139;SDS011;7150;53.514;9.988;2023-04-24T10:58:14;7.93;;;6.00;;
14139;SDS011;7150;53.514;9.988;2023-04-24T11:00:41;8.80;;;5.30;;
14139;SDS011;7150;53.514;9.988;2023-04-24T11:03:22;7.37;;;5.37;;
14139;SDS011;7150;53.514;9.988;2023-04-24T11:08:23;9.40;;;5.87;;
14139;SDS011;7150;53.514;9.988;2023-04-24T11:11:10;8.83;;;6.03;;
14139;SDS011;7150;53.514;9.988;2023-04-24T11:16:28;7.33;;;5.60;;
14139;SDS011;7150;53.514;9.988;2023-04-24T11:26:58;7.40;;;5.43;;
14139;SDS011;7150;53.514;9.988;2023-04-24T11:29:44;8.10;;;5.80;;
14139;SDS011;7150;53.514;9.988;2023-04-24T11:32:19;7.20;;;5.73;;
14139;SDS011;7150;53.514;9.988;2023-04-24T11:34:52;6.47;;;4.60;;
14139;SDS011;7150;53.514;9.988;2023-04-24T11:37:19;6.03;;;5.23;;
14139;SDS011;7150;53.514;9.988;2023-04-24T11:39:45;6.90;;;5.20;;
14139;SDS011;7150;53.514;9.988;2023-04-24T11:42:12;5.63;;;4.47;;
14139;SDS011;7150;53.514;9.988;2023-04-24T11:44:41;5.43;;;4.07;;
14139;SDS011;7150;53.514;9.988;2023-04-24T11:47:07;5.30;;;4.80;;
14139;SDS011;7150;53.514;9.988;2023-04-24T11:49:33;6.37;;;4.43;;
14139;SDS011;7150;53.514;9.988;2023-04-24T11:52:01;6.20;;;4.27;;
14139;SDS011;7150;53.514;9.988;2023-04-24T11:54:26;8.20;;;4.60;;
14139;SDS011;7150;53.514;9.988;2023-04-24T11:56:52;5.23;;;4.27;;
14139;SDS011;7150;53.514;9.988;2023-04-24T11:59:17;4.17;;;3.63;;
14139;SDS011;7150;53.514;9.988;2023-04-24T12:01:44;4.60;;;3.90;;
14139;SDS011;7150;53.514;9.988;2023-04-24T12:04:13;4.97;;;3.27;;
14139;SDS011;7150;53.514;9.988;2023-04-24T12:06:40;4.73;;;3.87;;
14139;SDS011;7150;53.514;9.988;2023-04-24T12:09:23;5.17;;;3.73;;
14139;SDS011;7150;53.514;9.988;2023-04-24T12:11:54;5.47;;;4.30;;
14139;SDS011;7150;53.514;9.988;2023-04-24T12:14:23;7.03;;;4.73;;
14139;SDS011;7150;53.514;9.988;2023-04-24T12:16:49;7.30;;;4.70;;
14139;SDS011;7150;53.514;9.988;2023-04-24T12:19:22;5.30;;;3.40;;
14139;SDS011;7150;53.514;9.988;2023-04-24T12:22:04;5.70;;;3.50;;
14139;SDS011;7150;53.514;9.988;2023-04-24T12:24:31;4.03;;;3.10;;
14139;SDS011;7150;53.514;9.988;2023-04-24T12:26:57;6.20;;;3.63;;
14139;SDS011;7150;53.514;9.988;2023-04-24T12:29:23;4.20;;;3.50;;
14139;SDS011;7150;53.514;9.988;2023-04-24T12:31:50;5.77;;;4.10;;
14139;SDS011;7150;53.514;9.988;2023-04-24T12:36:46;4.33;;;3.83;;
14139;SDS011;7150;53.514;9.988;2023-04-24T12:39:18;6.33;;;3.20;;
14139;SDS011;7150;53.514;9.988;2023-04-24T12:42:25;4.67;;;3.93;;
14139;SDS011;7150;53.514;9.988;2023-04-24T12:44:36;5.30;;;4.30;;
14139;SDS011;7150;53.514;9.988;2023-04-24T12:47:02;5.07;;;3.80;;
14139;SDS011;7150;53.514;9.988;2023-04-24T12:49:29;4.47;;;3.33;;
14139;SDS011;7150;53.514;9.988;2023-04-24T12:51:55;5.93;;;4.37;;
14139;SDS011;7150;53.514;9.988;2023-04-24T12:54:21;3.97;;;3.40;;
14139;SDS011;7150;53.514;9.988;2023-04-24T12:56:47;4.33;;;3.40;;
14139;SDS011;7150;53.514;9.988;2023-04-24T12:59:12;6.27;;;3.30;;
14139;SDS011;7150;53.514;9.988;2023-04-24T13:01:38;4.50;;;3.37;;
14139;SDS011;7150;53.514;9.988;2023-04-24T13:04:04;3.90;;;3.07;;
14139;SDS011;7150;53.514;9.988;2023-04-24T13:06:30;6.03;;;3.37;;
14139;SDS011;7150;53.514;9.988;2023-04-24T13:11:50;5.17;;;3.90;;
14139;SDS011;7150;53.514;9.988;2023-04-24T13:14:15;6.00;;;3.30;;
14139;SDS011;7150;53.514;9.988;2023-04-24T13:20:03;3.53;;;2.73;;
14139;SDS011;7150;53.514;9.988;2023-04-24T13:22:29;5.53;;;3.57;;
14139;SDS011;7150;53.514;9.988;2023-04-24T13:24:54;5.13;;;3.20;;
14139;SDS011;7150;53.514;9.988;2023-04-24T13:27:21;4.20;;;3.03;;
14139;SDS011;7150;53.514;9.988;2023-04-24T13:29:46;5.30;;;3.23;;
14139;SDS011;7150;53.514;9.988;2023-04-24T13:32:12;3.53;;;3.00;;
14139;SDS011;7150;53.514;9.988;2023-04-24T13:34:37;4.37;;;2.90;;
14139;SDS011;7150;53.514;9.988;2023-04-24T13:37:03;3.40;;;2.90;;
14139;SDS011;7150;53.514;9.988;2023-04-24T13:39:29;3.03;;;2.73;;
14139;SDS011;7150;53.514;9.988;2023-04-24T13:41:55;3.07;;;2.67;;
14139;SDS011;7150;53.514;9.988;2023-04-24T13:44:21;5.97;;;2.97;;
14139;SDS011;7150;53.514;9.988;2023-04-24T13:46:48;5.07;;;2.50;;
14139;SDS011;7150;53.514;9.988;2023-04-24T13:49:16;3.70;;;2.50;;
14139;SDS011;7150;53.514;9.988;2023-04-24T13:51:42;3.30;;;2.83;;
14139;SDS011;7150;53.514;9.988;2023-04-24T13:54:08;3.73;;;3.07;;
14139;SDS011;7150;53.514;9.988;2023-04-24T13:56:34;4.80;;;2.60;;
14139;SDS011;7150;53.514;9.988;2023-04-24T13:59:00;4.00;;;2.63;;
14139;SDS011;7150;53.514;9.988;2023-04-24T14:01:25;4.93;;;3.40;;
14139;SDS011;7150;53.514;9.988;2023-04-24T14:03:51;3.67;;;3.30;;
14139;SDS011;7150;53.514;9.988;2023-04-24T14:06:18;3.30;;;2.53;;
14139;SDS011;7150;53.514;9.988;2023-04-24T14:08:44;4.73;;;3.10;;
14139;SDS011;7150;53.514;9.988;2023-04-24T14:11:10;4.00;;;2.97;;
14139;SDS011;7150;53.514;9.988;2023-04-24T14:13:36;2.50;;;2.30;;
14139;SDS011;7150;53.514;9.988;2023-04-24T14:16:02;4.07;;;3.13;;
14139;SDS011;7150;53.514;9.988;2023-04-24T14:18:28;3.53;;;2.90;;
14139;SDS011;7150;53.514;9.988;2023-04-24T14:20:54;3.43;;;2.77;;
14139;SDS011;7150;53.514;9.988;2023-04-24T14:23:19;4.40;;;3.50;;
14139;SDS011;7150;53.514;9.988;2023-04-24T14:25:45;3.13;;;2.53;;
14139;SDS011;7150;53.514;9.988;2023-04-24T14:28:11;3.67;;;2.80;;
14139;SDS011;7150;53.514;9.988;2023-04-24T14:30:36;3.10;;;2.40;;
14139;SDS011;7150;53.514;9.988;2023-04-24T14:33:02;2.70;;;2.50;;
14139;SDS011;7150;53.514;9.988;2023-04-24T14:35:28;3.87;;;2.33;;
14139;SDS011;7150;53.514;9.988;2023-04-24T14:37:56;3.67;;;2.60;;
14139;SDS011;7150;53.514;9.988;2023-04-24T14:40:22;2.63;;;2.13;;
14139;SDS011;7150;53.514;9.988;2023-04-24T14:42:47;13.83;;;3.67;;
14139;SDS011;7150;53.514;9.988;2023-04-24T14:45:13;12.53;;;3.57;;
14139;SDS011;7150;53.514;9.988;2023-04-24T14:47:38;4.93;;;3.50;;
14139;SDS011;7150;53.514;9.988;2023-04-24T14:50:04;4.53;;;3.83;;
14139;SDS011;7150;53.514;9.988;2023-04-24T14:52:30;5.33;;;4.13;;
14139;SDS011;7150;53.514;9.988;2023-04-24T14:54:56;6.00;;;3.93;;
14139;SDS011;7150;53.514;9.988;2023-04-24T14:57:22;4.73;;;4.00;;
14139;SDS011;7150;53.514;9.988;2023-04-24T14:59:47;5.67;;;3.90;;
14139;SDS011;7150;53.514;9.988;2023-04-24T15:02:13;4.43;;;4.00;;
14139;SDS011;7150;53.514;9.988;2023-04-24T15:04:38;5.27;;;4.77;;
14139;SDS011;7150;53.514;9.988;2023-04-24T15:07:04;6.20;;;4.17;;
14139;SDS011;7150;53.514;9.988;2023-04-24T15:09:29;6.00;;;4.47;;
14139;SDS011;7150;53.514;9.988;2023-04-24T15:11:57;4.97;;;4.43;;
14139;SDS011;7150;53.514;9.988;2023-04-24T15:14:23;4.90;;;4.30;;
14139;SDS011;7150;53.514;9.988;2023-04-24T15:16:48;5.50;;;4.10;;
14139;SDS011;7150;53.514;9.988;2023-04-24T15:19:14;4.80;;;3.93;;
14139;SDS011;7150;53.514;9.988;2023-04-24T15:21:39;4.20;;;3.43;;